sensor_id;sensor_type;location;lat;lon;timestamp;temperature;humidity
292;DHT22;23311;48.776;9.162;2023-07-29T00:01:11;17.50;95.50
292;DHT22;23311;48.776;9.162;2023-07-29T00:03:39;17.50;95.50
292;DHT22;23311;48.776;9.162;2023-07-29T00:06:09;17.50;95.50
292;DHT22;23311;48.776;9.162;2023-07-29T00:08:38;17.50;95.50
292;DHT22;23311;48.776;9.162;2023-07-29T00:11:06;17.50;95.50
292;DHT22;23311;48.776;9.162;2023-07-29T00:13:35;17.50;95.50
292;DHT22;23311;48.776;9.162;2023-07-29T00:16:04;17.50;95.50
292;DHT22;23311;48.776;9.162;2023-07-29T00:18:33;17.50;95.50
292;DHT22;23311;48.776;9.162;2023-07-29T00:21:01;17.50;95.50
292;DHT22;23311;48.776;9.162;2023-07-29T00:23:29;17.50;95.50
292;DHT22;23311;48.776;9.162;2023-07-29T00:25:57;17.60;95.50
292;DHT22;23311;48.776;9.162;2023-07-29T00:28:25;17.50;95.50
292;DHT22;23311;48.776;9.162;2023-07-29T00:30:55;17.70;95.50
292;DHT22;23311;48.776;9.162;2023-07-29T00:33:23;17.80;95.50
292;DHT22;23311;48.776;9.162;2023-07-29T00:35:51;17.80;95.50
292;DHT22;23311;48.776;9.162;2023-07-29T00:38:19;17.80;95.50
292;DHT22;23311;48.776;9.162;2023-07-29T00:40:48;17.80;95.50
292;DHT22;23311;48.776;9.162;2023-07-29T00:43:16;17.90;95.50
292;DHT22;23311;48.776;9.162;2023-07-29T00:45:45;17.90;95.50
292;DHT22;23311;48.776;9.162;2023-07-29T00:48:14;17.80;95.50
292;DHT22;23311;48.776;9.162;2023-07-29T00:50:43;17.70;95.50
292;DHT22;23311;48.776;9.162;2023-07-29T00:53:11;17.70;95.50
292;DHT22;23311;48.776;9.162;2023-07-29T00:55:40;17.60;95.50
292;DHT22;23311;48.776;9.162;2023-07-29T00:58:09;17.60;95.50
292;DHT22;23311;48.776;9.162;2023-07-29T01:00:37;17.60;95.50
292;DHT22;23311;48.776;9.162;2023-07-29T01:03:06;17.60;95.50
292;DHT22;23311;48.776;9.162;2023-07-29T01:05:43;17.60;95.50
292;DHT22;23311;48.776;9.162;2023-07-29T01:08:20;17.70;95.50
292;DHT22;23311;48.776;9.162;2023-07-29T01:10:56;17.80;95.50
292;DHT22;23311;48.776;9.162;2023-07-29T01:13:31;17.90;95.50
292;DHT22;23311;48.776;9.162;2023-07-29T01:16:04;17.90;95.50
292;DHT22;23311;48.776;9.162;2023-07-29T01:18:37;17.90;95.50
292;DHT22;23311;48.776;9.162;2023-07-29T01:21:08;17.80;95.50
292;DHT22;23311;48.776;9.162;2023-07-29T01:23:38;17.90;95.50
292;DHT22;23311;48.776;9.162;2023-07-29T01:26:06;17.90;95.50
292;DHT22;23311;48.776;9.162;2023-07-29T01:28:35;17.90;95.50
292;DHT22;23311;48.776;9.162;2023-07-29T01:31:09;17.90;95.50
292;DHT22;23311;48.776;9.162;2023-07-29T01:33:42;17.90;95.50
292;DHT22;23311;48.776;9.162;2023-07-29T01:36:15;18.00;95.50
292;DHT22;23311;48.776;9.162;2023-07-29T01:38:48;18.00;95.50
292;DHT22;23311;48.776;9.162;2023-07-29T01:41:17;18.00;95.50
292;DHT22;23311;48.776;9.162;2023-07-29T01:43:47;18.00;95.50
292;DHT22;23311;48.776;9.162;2023-07-29T01:46:15;18.10;95.50
292;DHT22;23311;48.776;9.162;2023-07-29T01:48:43;18.20;95.50
292;DHT22;23311;48.776;9.162;2023-07-29T01:51:12;18.20;95.50
292;DHT22;23311;48.776;9.162;2023-07-29T01:53:40;18.20;95.50
292;DHT22;23311;48.776;9.162;2023-07-29T01:56:10;18.20;95.50
292;DHT22;23311;48.776;9.162;2023-07-29T01:58:38;18.30;95.50
292;DHT22;23311;48.776;9.162;2023-07-29T02:01:06;18.20;95.50
292;DHT22;23311;48.776;9.162;2023-07-29T02:03:34;18.20;95.50
292;DHT22;23311;48.776;9.162;2023-07-29T02:06:02;18.20;95.50
292;DHT22;23311;48.776;9.162;2023-07-29T02:08:30;18.10;95.50
292;DHT22;23311;48.776;9.162;2023-07-29T02:10:58;18.10;95.50
292;DHT22;23311;48.776;9.162;2023-07-29T02:13:28;18.00;95.50
292;DHT22;23311;48.776;9.162;2023-07-29T02:15:56;18.00;95.50
292;DHT22;23311;48.776;9.162;2023-07-29T02:18:24;17.90;95.50
292;DHT22;23311;48.776;9.162;2023-07-29T02:20:52;17.90;95.50
292;DHT22;23311;48.776;9.162;2023-07-29T02:23:20;17.80;95.50
292;DHT22;23311;48.776;9.162;2023-07-29T02:25:48;17.80;95.50
292;DHT22;23311;48.776;9.162;2023-07-29T02:28:17;17.80;95.50
292;DHT22;23311;48.776;9.162;2023-07-29T02:30:47;17.60;95.50
292;DHT22;23311;48.776;9.162;2023-07-29T02:33:35;17.50;95.50
292;DHT22;23311;48.776;9.162;2023-07-29T02:36:04;17.50;95.50
292;DHT22;23311;48.776;9.162;2023-07-29T02:38:32;17.50;95.50
292;DHT22;23311;48.776;9.162;2023-07-29T02:41:00;17.50;95.50
292;DHT22;23311;48.776;9.162;2023-07-29T02:43:28;17.50;95.50
292;DHT22;23311;48.776;9.162;2023-07-29T02:45:57;17.70;95.50
292;DHT22;23311;48.776;9.162;2023-07-29T02:48:26;17.70;95.50
292;DHT22;23311;48.776;9.162;2023-07-29T02:50:55;17.80;95.50
292;DHT22;23311;48.776;9.162;2023-07-29T02:53:23;17.80;95.50
292;DHT22;23311;48.776;9.162;2023-07-29T02:55:51;17.80;95.50
292;DHT22;23311;48.776;9.162;2023-07-29T02:58:19;17.80;95.50
292;DHT22;23311;48.776;9.162;2023-07-29T03:00:47;17.80;95.50
292;DHT22;23311;48.776;9.162;2023-07-29T03:03:17;17.90;95.50
292;DHT22;23311;48.776;9.162;2023-07-29T03:05:46;17.90;95.50
292;DHT22;23311;48.776;9.162;2023-07-29T03:08:14;18.00;95.50
292;DHT22;23311;48.776;9.162;2023-07-29T03:10:42;18.00;95.50
292;DHT22;23311;48.776;9.162;2023-07-29T03:13:10;18.00;95.50
292;DHT22;23311;48.776;9.162;2023-07-29T03:15:38;18.00;95.50
292;DHT22;23311;48.776;9.162;2023-07-29T03:18:06;17.90;95.50
292;DHT22;23311;48.776;9.162;2023-07-29T03:20:36;17.90;95.50
292;DHT22;23311;48.776;9.162;2023-07-29T03:23:04;17.90;95.50
292;DHT22;23311;48.776;9.162;2023-07-29T03:25:32;18.00;95.50
292;DHT22;23311;48.776;9.162;2023-07-29T03:28:00;18.00;95.50
292;DHT22;23311;48.776;9.162;2023-07-29T03:30:28;18.00;95.50
292;DHT22;23311;48.776;9.162;2023-07-29T03:32:56;18.10;95.50
292;DHT22;23311;48.776;9.162;2023-07-29T03:35:24;18.10;95.50
292;DHT22;23311;48.776;9.162;2023-07-29T03:37:54;18.20;95.50
292;DHT22;23311;48.776;9.162;2023-07-29T03:40:22;18.20;95.50
292;DHT22;23311;48.776;9.162;2023-07-29T03:42:50;18.30;95.50
292;DHT22;23311;48.776;9.162;2023-07-29T03:45:18;18.30;95.50
292;DHT22;23311;48.776;9.162;2023-07-29T03:47:46;18.40;95.50
292;DHT22;23311;48.776;9.162;2023-07-29T03:50:14;18.40;95.50
292;DHT22;23311;48.776;9.162;2023-07-29T03:52:42;18.40;95.50
292;DHT22;23311;48.776;9.162;2023-07-29T03:55:13;18.40;95.50
292;DHT22;23311;48.776;9.162;2023-07-29T03:57:41;18.40;95.50
292;DHT22;23311;48.776;9.162;2023-07-29T04:00:09;18.40;95.50
292;DHT22;23311;48.776;9.162;2023-07-29T04:02:38;18.40;95.50
292;DHT22;23311;48.776;9.162;2023-07-29T04:05:06;18.40;95.50
292;DHT22;23311;48.776;9.162;2023-07-29T04:07:35;18.20;95.50
292;DHT22;23311;48.776;9.162;2023-07-29T04:10:05;18.10;95.50
292;DHT22;23311;48.776;9.162;2023-07-29T04:12:35;17.90;95.50
292;DHT22;23311;48.776;9.162;2023-07-29T04:15:03;17.80;95.50
292;DHT22;23311;48.776;9.162;2023-07-29T04:17:31;17.70;95.50
292;DHT22;23311;48.776;9.162;2023-07-29T04:19:59;17.70;95.50
292;DHT22;23311;48.776;9.162;2023-07-29T04:22:28;17.70;95.50
292;DHT22;23311;48.776;9.162;2023-07-29T04:24:56;17.70;95.50
292;DHT22;23311;48.776;9.162;2023-07-29T04:27:24;17.60;95.50
292;DHT22;23311;48.776;9.162;2023-07-29T04:29:53;17.60;95.50
292;DHT22;23311;48.776;9.162;2023-07-29T04:32:21;17.60;95.50
292;DHT22;23311;48.776;9.162;2023-07-29T04:34:49;17.60;95.50
292;DHT22;23311;48.776;9.162;2023-07-29T04:37:18;17.60;95.50
292;DHT22;23311;48.776;9.162;2023-07-29T04:39:46;17.60;95.50
292;DHT22;23311;48.776;9.162;2023-07-29T04:42:14;17.60;95.50
292;DHT22;23311;48.776;9.162;2023-07-29T04:44:42;17.70;95.50
292;DHT22;23311;48.776;9.162;2023-07-29T04:47:11;17.60;95.50
292;DHT22;23311;48.776;9.162;2023-07-29T04:49:39;17.70;95.50
292;DHT22;23311;48.776;9.162;2023-07-29T04:52:08;17.70;95.50
292;DHT22;23311;48.776;9.162;2023-07-29T04:54:36;17.80;95.50
292;DHT22;23311;48.776;9.162;2023-07-29T04:57:04;17.80;95.50
292;DHT22;23311;48.776;9.162;2023-07-29T04:59:33;17.80;95.50
292;DHT22;23311;48.776;9.162;2023-07-29T05:02:01;17.80;95.50
292;DHT22;23311;48.776;9.162;2023-07-29T05:04:30;17.90;95.50
292;DHT22;23311;48.776;9.162;2023-07-29T05:06:58;17.90;95.50
292;DHT22;23311;48.776;9.162;2023-07-29T05:09:27;17.90;95.50
292;DHT22;23311;48.776;9.162;2023-07-29T05:11:55;17.80;95.50
292;DHT22;23311;48.776;9.162;2023-07-29T05:14:23;17.80;95.50
292;DHT22;23311;48.776;9.162;2023-07-29T05:16:51;17.90;95.50
292;DHT22;23311;48.776;9.162;2023-07-29T05:19:19;17.90;95.50
292;DHT22;23311;48.776;9.162;2023-07-29T05:21:48;18.00;95.50
292;DHT22;23311;48.776;9.162;2023-07-29T05:24:16;18.00;95.50
292;DHT22;23311;48.776;9.162;2023-07-29T05:26:44;18.10;95.50
292;DHT22;23311;48.776;9.162;2023-07-29T05:29:13;18.10;95.50
292;DHT22;23311;48.776;9.162;2023-07-29T05:31:41;18.10;95.50
292;DHT22;23311;48.776;9.162;2023-07-29T05:34:09;18.10;95.50
292;DHT22;23311;48.776;9.162;2023-07-29T05:36:37;18.20;95.50
292;DHT22;23311;48.776;9.162;2023-07-29T05:39:07;18.20;95.50
292;DHT22;23311;48.776;9.162;2023-07-29T05:41:35;18.30;95.50
292;DHT22;23311;48.776;9.162;2023-07-29T05:44:03;18.30;95.50
292;DHT22;23311;48.776;9.162;2023-07-29T05:46:34;18.40;95.50
292;DHT22;23311;48.776;9.162;2023-07-29T05:49:02;18.40;95.50
292;DHT22;23311;48.776;9.162;2023-07-29T05:51:31;18.50;95.50
292;DHT22;23311;48.776;9.162;2023-07-29T05:53:59;18.60;95.50
292;DHT22;23311;48.776;9.162;2023-07-29T05:56:28;18.70;95.50
292;DHT22;23311;48.776;9.162;2023-07-29T05:58:56;18.70;95.50
292;DHT22;23311;48.776;9.162;2023-07-29T06:01:25;18.80;95.50
292;DHT22;23311;48.776;9.162;2023-07-29T06:03:53;19.00;95.50
292;DHT22;23311;48.776;9.162;2023-07-29T06:06:21;19.10;95.50
292;DHT22;23311;48.776;9.162;2023-07-29T06:08:50;19.50;95.50
292;DHT22;23311;48.776;9.162;2023-07-29T06:11:18;19.80;95.50
292;DHT22;23311;48.776;9.162;2023-07-29T06:13:48;20.00;95.50
292;DHT22;23311;48.776;9.162;2023-07-29T06:16:16;20.10;95.50
292;DHT22;23311;48.776;9.162;2023-07-29T06:18:45;20.20;95.50
292;DHT22;23311;48.776;9.162;2023-07-29T06:21:13;20.30;95.50
292;DHT22;23311;48.776;9.162;2023-07-29T06:23:44;20.50;95.50
292;DHT22;23311;48.776;9.162;2023-07-29T06:26:12;20.60;95.50
292;DHT22;23311;48.776;9.162;2023-07-29T06:28:40;20.90;95.50
292;DHT22;23311;48.776;9.162;2023-07-29T06:31:09;21.30;95.50
292;DHT22;23311;48.776;9.162;2023-07-29T06:33:38;21.40;95.50
292;DHT22;23311;48.776;9.162;2023-07-29T06:36:06;21.30;95.50
292;DHT22;23311;48.776;9.162;2023-07-29T06:38:34;21.10;95.50
292;DHT22;23311;48.776;9.162;2023-07-29T06:41:02;20.80;95.50
292;DHT22;23311;48.776;9.162;2023-07-29T06:43:30;20.60;95.50
292;DHT22;23311;48.776;9.162;2023-07-29T06:45:58;20.50;95.50
292;DHT22;23311;48.776;9.162;2023-07-29T06:48:28;20.50;95.50
292;DHT22;23311;48.776;9.162;2023-07-29T06:50:56;20.60;95.50
292;DHT22;23311;48.776;9.162;2023-07-29T06:53:27;20.80;95.50
292;DHT22;23311;48.776;9.162;2023-07-29T06:55:57;20.90;95.50
292;DHT22;23311;48.776;9.162;2023-07-29T06:58:25;20.90;95.50
292;DHT22;23311;48.776;9.162;2023-07-29T07:00:53;20.60;95.50
292;DHT22;23311;48.776;9.162;2023-07-29T07:03:23;20.40;95.50
292;DHT22;23311;48.776;9.162;2023-07-29T07:05:53;20.20;95.50
292;DHT22;23311;48.776;9.162;2023-07-29T07:08:21;20.00;95.50
292;DHT22;23311;48.776;9.162;2023-07-29T07:10:49;19.80;95.50
292;DHT22;23311;48.776;9.162;2023-07-29T07:13:17;19.50;95.50
292;DHT22;23311;48.776;9.162;2023-07-29T07:15:45;19.40;95.50
292;DHT22;23311;48.776;9.162;2023-07-29T07:18:13;19.30;95.50
292;DHT22;23311;48.776;9.162;2023-07-29T07:20:41;19.20;95.50
292;DHT22;23311;48.776;9.162;2023-07-29T07:23:11;19.20;95.50
292;DHT22;23311;48.776;9.162;2023-07-29T07:25:40;19.20;95.50
292;DHT22;23311;48.776;9.162;2023-07-29T07:28:09;19.20;95.50
292;DHT22;23311;48.776;9.162;2023-07-29T07:30:39;19.20;95.50
292;DHT22;23311;48.776;9.162;2023-07-29T07:33:08;19.20;95.50
292;DHT22;23311;48.776;9.162;2023-07-29T07:35:36;19.30;95.50
292;DHT22;23311;48.776;9.162;2023-07-29T07:38:05;19.40;95.50
292;DHT22;23311;48.776;9.162;2023-07-29T07:40:35;19.50;95.50
292;DHT22;23311;48.776;9.162;2023-07-29T07:43:04;19.50;95.50
292;DHT22;23311;48.776;9.162;2023-07-29T07:45:32;19.60;95.50
292;DHT22;23311;48.776;9.162;2023-07-29T07:48:00;19.60;95.50
292;DHT22;23311;48.776;9.162;2023-07-29T07:50:30;19.70;95.50
292;DHT22;23311;48.776;9.162;2023-07-29T07:52:58;19.70;95.50
292;DHT22;23311;48.776;9.162;2023-07-29T07:55:26;19.70;95.50
292;DHT22;23311;48.776;9.162;2023-07-29T07:57:56;19.80;95.50
292;DHT22;23311;48.776;9.162;2023-07-29T08:00:24;19.90;95.50
292;DHT22;23311;48.776;9.162;2023-07-29T08:02:52;19.90;95.50
292;DHT22;23311;48.776;9.162;2023-07-29T08:05:20;20.10;95.50
292;DHT22;23311;48.776;9.162;2023-07-29T08:07:48;20.50;95.50
292;DHT22;23311;48.776;9.162;2023-07-29T08:10:17;21.00;95.50
292;DHT22;23311;48.776;9.162;2023-07-29T08:12:45;21.00;95.50
292;DHT22;23311;48.776;9.162;2023-07-29T08:15:14;20.90;95.50
292;DHT22;23311;48.776;9.162;2023-07-29T08:17:42;21.10;95.50
292;DHT22;23311;48.776;9.162;2023-07-29T08:20:11;21.60;95.50
292;DHT22;23311;48.776;9.162;2023-07-29T08:22:39;22.00;95.50
292;DHT22;23311;48.776;9.162;2023-07-29T08:25:07;22.10;95.50
292;DHT22;23311;48.776;9.162;2023-07-29T08:27:36;22.20;95.50
292;DHT22;23311;48.776;9.162;2023-07-29T08:30:05;22.10;95.50
292;DHT22;23311;48.776;9.162;2023-07-29T08:32:34;22.00;95.50
292;DHT22;23311;48.776;9.162;2023-07-29T08:35:03;22.10;95.50
292;DHT22;23311;48.776;9.162;2023-07-29T08:37:31;22.20;95.50
292;DHT22;23311;48.776;9.162;2023-07-29T08:40:00;22.50;95.50
292;DHT22;23311;48.776;9.162;2023-07-29T08:42:31;22.70;95.50
292;DHT22;23311;48.776;9.162;2023-07-29T08:45:06;23.00;95.50
292;DHT22;23311;48.776;9.162;2023-07-29T08:47:35;23.30;95.50
292;DHT22;23311;48.776;9.162;2023-07-29T08:50:05;23.50;95.50
292;DHT22;23311;48.776;9.162;2023-07-29T08:52:34;23.90;95.50
292;DHT22;23311;48.776;9.162;2023-07-29T08:55:02;24.10;95.50
292;DHT22;23311;48.776;9.162;2023-07-29T08:57:31;24.70;95.50
292;DHT22;23311;48.776;9.162;2023-07-29T09:00:00;25.70;95.50
292;DHT22;23311;48.776;9.162;2023-07-29T09:02:31;27.10;95.50
292;DHT22;23311;48.776;9.162;2023-07-29T09:05:01;27.50;95.50
292;DHT22;23311;48.776;9.162;2023-07-29T09:07:29;27.80;95.50
292;DHT22;23311;48.776;9.162;2023-07-29T09:09:58;28.10;95.50
292;DHT22;23311;48.776;9.162;2023-07-29T09:12:26;28.00;95.50
292;DHT22;23311;48.776;9.162;2023-07-29T09:14:54;27.60;95.50
292;DHT22;23311;48.776;9.162;2023-07-29T09:17:22;27.30;95.50
292;DHT22;23311;48.776;9.162;2023-07-29T09:19:51;27.20;95.50
292;DHT22;23311;48.776;9.162;2023-07-29T09:22:21;27.10;95.50
292;DHT22;23311;48.776;9.162;2023-07-29T09:24:49;28.50;94.10
292;DHT22;23311;48.776;9.162;2023-07-29T09:27:25;28.90;92.00
292;DHT22;23311;48.776;9.162;2023-07-29T09:29:54;29.20;91.10
292;DHT22;23311;48.776;9.162;2023-07-29T09:32:23;29.10;90.90
292;DHT22;23311;48.776;9.162;2023-07-29T09:34:51;28.30;91.80
292;DHT22;23311;48.776;9.162;2023-07-29T09:37:22;28.60;92.30
292;DHT22;23311;48.776;9.162;2023-07-29T09:39:51;29.10;91.30
292;DHT22;23311;48.776;9.162;2023-07-29T09:42:21;28.90;90.50
292;DHT22;23311;48.776;9.162;2023-07-29T09:44:50;26.80;94.00
292;DHT22;23311;48.776;9.162;2023-07-29T09:47:22;25.80;95.50
292;DHT22;23311;48.776;9.162;2023-07-29T09:49:52;25.90;95.50
292;DHT22;23311;48.776;9.162;2023-07-29T09:52:22;26.80;95.50
292;DHT22;23311;48.776;9.162;2023-07-29T09:54:51;28.30;92.80
292;DHT22;23311;48.776;9.162;2023-07-29T09:57:19;28.90;90.40
292;DHT22;23311;48.776;9.162;2023-07-29T09:59:54;27.80;90.40
292;DHT22;23311;48.776;9.162;2023-07-29T10:02:22;26.50;94.80
292;DHT22;23311;48.776;9.162;2023-07-29T10:04:52;27.50;93.60
292;DHT22;23311;48.776;9.162;2023-07-29T10:07:22;29.50;87.80
292;DHT22;23311;48.776;9.162;2023-07-29T10:09:52;30.60;85.90
292;DHT22;23311;48.776;9.162;2023-07-29T10:12:20;31.80;81.90
292;DHT22;23311;48.776;9.162;2023-07-29T10:14:50;31.50;81.50
292;DHT22;23311;48.776;9.162;2023-07-29T10:17:20;31.40;80.30
292;DHT22;23311;48.776;9.162;2023-07-29T10:19:49;29.50;83.80
292;DHT22;23311;48.776;9.162;2023-07-29T10:22:21;27.40;89.00
292;DHT22;23311;48.776;9.162;2023-07-29T10:24:51;26.80;91.70
292;DHT22;23311;48.776;9.162;2023-07-29T10:27:24;26.10;93.80
292;DHT22;23311;48.776;9.162;2023-07-29T10:29:55;26.00;94.50
292;DHT22;23311;48.776;9.162;2023-07-29T10:32:25;25.90;95.10
292;DHT22;23311;48.776;9.162;2023-07-29T10:34:54;25.50;95.50
292;DHT22;23311;48.776;9.162;2023-07-29T10:37:24;25.40;95.50
292;DHT22;23311;48.776;9.162;2023-07-29T10:39:53;25.00;95.50
292;DHT22;23311;48.776;9.162;2023-07-29T10:42:22;24.70;95.50
292;DHT22;23311;48.776;9.162;2023-07-29T10:44:51;24.70;95.50
292;DHT22;23311;48.776;9.162;2023-07-29T10:47:22;24.70;95.50
292;DHT22;23311;48.776;9.162;2023-07-29T10:49:52;24.80;95.50
292;DHT22;23311;48.776;9.162;2023-07-29T10:52:31;24.50;95.50
292;DHT22;23311;48.776;9.162;2023-07-29T10:54:59;24.50;95.50
292;DHT22;23311;48.776;9.162;2023-07-29T10:57:32;25.40;95.50
292;DHT22;23311;48.776;9.162;2023-07-29T11:00:01;27.50;95.00
292;DHT22;23311;48.776;9.162;2023-07-29T11:02:31;28.00;93.40
292;DHT22;23311;48.776;9.162;2023-07-29T11:05:04;28.10;92.10
292;DHT22;23311;48.776;9.162;2023-07-29T11:07:44;26.60;93.70
292;DHT22;23311;48.776;9.162;2023-07-29T11:10:13;26.30;94.20
292;DHT22;23311;48.776;9.162;2023-07-29T11:12:45;26.80;93.40
292;DHT22;23311;48.776;9.162;2023-07-29T11:15:20;27.40;92.00
292;DHT22;23311;48.776;9.162;2023-07-29T11:17:50;27.40;91.80
292;DHT22;23311;48.776;9.162;2023-07-29T11:20:20;27.60;90.90
292;DHT22;23311;48.776;9.162;2023-07-29T11:22:50;27.40;91.60
292;DHT22;23311;48.776;9.162;2023-07-29T11:25:18;26.90;91.90
292;DHT22;23311;48.776;9.162;2023-07-29T11:27:47;27.00;91.50
292;DHT22;23311;48.776;9.162;2023-07-29T11:30:16;26.80;91.80
292;DHT22;23311;48.776;9.162;2023-07-29T11:32:45;26.70;91.70
292;DHT22;23311;48.776;9.162;2023-07-29T11:35:15;26.20;92.70
292;DHT22;23311;48.776;9.162;2023-07-29T11:37:44;26.30;92.90
292;DHT22;23311;48.776;9.162;2023-07-29T11:40:16;25.90;92.40
292;DHT22;23311;48.776;9.162;2023-07-29T11:42:45;26.70;92.20
292;DHT22;23311;48.776;9.162;2023-07-29T11:45:14;27.40;89.10
292;DHT22;23311;48.776;9.162;2023-07-29T11:47:44;27.90;88.20
292;DHT22;23311;48.776;9.162;2023-07-29T11:50:14;27.00;90.20
292;DHT22;23311;48.776;9.162;2023-07-29T11:52:43;27.00;90.80
292;DHT22;23311;48.776;9.162;2023-07-29T11:55:13;27.60;89.40
292;DHT22;23311;48.776;9.162;2023-07-29T11:57:43;28.50;87.20
292;DHT22;23311;48.776;9.162;2023-07-29T12:00:12;28.90;86.20
292;DHT22;23311;48.776;9.162;2023-07-29T12:02:42;29.00;85.70
292;DHT22;23311;48.776;9.162;2023-07-29T12:05:13;29.10;85.10
292;DHT22;23311;48.776;9.162;2023-07-29T12:07:43;28.30;86.40
292;DHT22;23311;48.776;9.162;2023-07-29T12:10:12;28.80;85.70
292;DHT22;23311;48.776;9.162;2023-07-29T12:12:45;29.50;84.00
292;DHT22;23311;48.776;9.162;2023-07-29T12:15:14;29.70;82.60
292;DHT22;23311;48.776;9.162;2023-07-29T12:17:52;30.30;83.00
292;DHT22;23311;48.776;9.162;2023-07-29T12:20:21;31.10;80.40
292;DHT22;23311;48.776;9.162;2023-07-29T12:22:53;30.50;80.50
292;DHT22;23311;48.776;9.162;2023-07-29T12:25:22;29.70;81.50
292;DHT22;23311;48.776;9.162;2023-07-29T12:27:52;29.00;82.90
292;DHT22;23311;48.776;9.162;2023-07-29T12:30:20;29.40;81.70
292;DHT22;23311;48.776;9.162;2023-07-29T12:32:49;28.70;83.00
292;DHT22;23311;48.776;9.162;2023-07-29T12:35:17;28.70;83.50
292;DHT22;23311;48.776;9.162;2023-07-29T12:37:45;28.20;83.10
292;DHT22;23311;48.776;9.162;2023-07-29T12:40:23;28.50;79.30
292;DHT22;23311;48.776;9.162;2023-07-29T12:42:53;28.90;78.50
292;DHT22;23311;48.776;9.162;2023-07-29T12:45:21;28.80;77.40
292;DHT22;23311;48.776;9.162;2023-07-29T12:47:53;29.40;75.80
292;DHT22;23311;48.776;9.162;2023-07-29T12:50:22;29.10;76.80
292;DHT22;23311;48.776;9.162;2023-07-29T12:52:50;30.50;74.60
292;DHT22;23311;48.776;9.162;2023-07-29T12:55:18;30.10;74.30
292;DHT22;23311;48.776;9.162;2023-07-29T12:57:50;30.50;74.00
292;DHT22;23311;48.776;9.162;2023-07-29T13:00:19;30.40;74.40
292;DHT22;23311;48.776;9.162;2023-07-29T13:02:48;30.30;74.10
292;DHT22;23311;48.776;9.162;2023-07-29T13:05:17;30.30;75.00
292;DHT22;23311;48.776;9.162;2023-07-29T13:07:45;29.80;74.90
292;DHT22;23311;48.776;9.162;2023-07-29T13:10:14;29.80;75.20
292;DHT22;23311;48.776;9.162;2023-07-29T13:12:42;28.40;77.60
292;DHT22;23311;48.776;9.162;2023-07-29T13:15:10;28.40;78.40
292;DHT22;23311;48.776;9.162;2023-07-29T13:17:40;29.20;76.80
292;DHT22;23311;48.776;9.162;2023-07-29T13:20:09;29.90;75.90
292;DHT22;23311;48.776;9.162;2023-07-29T13:22:37;30.00;75.20
292;DHT22;23311;48.776;9.162;2023-07-29T13:25:05;30.30;75.20
292;DHT22;23311;48.776;9.162;2023-07-29T13:27:33;29.70;75.30
292;DHT22;23311;48.776;9.162;2023-07-29T13:30:02;28.90;77.10
292;DHT22;23311;48.776;9.162;2023-07-29T13:32:30;28.60;77.40
292;DHT22;23311;48.776;9.162;2023-07-29T13:34:59;28.20;78.60
292;DHT22;23311;48.776;9.162;2023-07-29T13:37:27;28.60;77.90
292;DHT22;23311;48.776;9.162;2023-07-29T13:39:56;28.30;78.40
292;DHT22;23311;48.776;9.162;2023-07-29T13:42:24;28.20;78.80
292;DHT22;23311;48.776;9.162;2023-07-29T13:44:52;27.70;79.60
292;DHT22;23311;48.776;9.162;2023-07-29T13:47:20;27.40;80.10
292;DHT22;23311;48.776;9.162;2023-07-29T13:49:48;27.40;80.40
292;DHT22;23311;48.776;9.162;2023-07-29T13:52:18;27.90;80.10
292;DHT22;23311;48.776;9.162;2023-07-29T13:54:46;28.60;78.30
292;DHT22;23311;48.776;9.162;2023-07-29T13:57:14;28.00;79.30
292;DHT22;23311;48.776;9.162;2023-07-29T13:59:42;28.40;79.10
292;DHT22;23311;48.776;9.162;2023-07-29T14:02:10;28.70;77.60
292;DHT22;23311;48.776;9.162;2023-07-29T14:04:38;29.10;77.70
292;DHT22;23311;48.776;9.162;2023-07-29T14:07:06;29.30;76.80
292;DHT22;23311;48.776;9.162;2023-07-29T14:09:36;28.60;77.20
292;DHT22;23311;48.776;9.162;2023-07-29T14:12:05;27.90;79.20
292;DHT22;23311;48.776;9.162;2023-07-29T14:14:33;28.00;79.20
292;DHT22;23311;48.776;9.162;2023-07-29T14:17:01;28.50;79.30
292;DHT22;23311;48.776;9.162;2023-07-29T14:19:30;29.10;77.40
292;DHT22;23311;48.776;9.162;2023-07-29T14:21:58;29.20;77.30
292;DHT22;23311;48.776;9.162;2023-07-29T14:24:26;28.70;78.30
292;DHT22;23311;48.776;9.162;2023-07-29T14:26:55;29.60;77.00
292;DHT22;23311;48.776;9.162;2023-07-29T14:29:24;30.20;75.90
292;DHT22;23311;48.776;9.162;2023-07-29T14:31:52;30.20;75.10
292;DHT22;23311;48.776;9.162;2023-07-29T14:34:20;29.20;76.80
292;DHT22;23311;48.776;9.162;2023-07-29T14:36:48;28.70;78.60
292;DHT22;23311;48.776;9.162;2023-07-29T14:39:17;29.10;78.40
292;DHT22;23311;48.776;9.162;2023-07-29T14:41:45;28.20;79.80
292;DHT22;23311;48.776;9.162;2023-07-29T14:44:14;28.00;80.50
292;DHT22;23311;48.776;9.162;2023-07-29T14:46:43;27.70;81.20
292;DHT22;23311;48.776;9.162;2023-07-29T14:49:11;27.70;81.30
292;DHT22;23311;48.776;9.162;2023-07-29T14:51:39;27.40;81.90
292;DHT22;23311;48.776;9.162;2023-07-29T14:54:07;27.60;81.80
292;DHT22;23311;48.776;9.162;2023-07-29T14:56:35;27.60;82.30
292;DHT22;23311;48.776;9.162;2023-07-29T14:59:04;27.50;81.90
292;DHT22;23311;48.776;9.162;2023-07-29T15:01:33;27.30;82.00
292;DHT22;23311;48.776;9.162;2023-07-29T15:04:02;27.20;82.40
292;DHT22;23311;48.776;9.162;2023-07-29T15:06:30;27.30;82.70
292;DHT22;23311;48.776;9.162;2023-07-29T15:08:59;27.40;82.30
292;DHT22;23311;48.776;9.162;2023-07-29T15:11:27;27.30;82.90
292;DHT22;23311;48.776;9.162;2023-07-29T15:13:55;27.20;83.30
292;DHT22;23311;48.776;9.162;2023-07-29T15:16:23;27.50;82.70
292;DHT22;23311;48.776;9.162;2023-07-29T15:18:53;27.00;83.50
292;DHT22;23311;48.776;9.162;2023-07-29T15:21:21;27.40;83.10
292;DHT22;23311;48.776;9.162;2023-07-29T15:23:49;27.70;82.70
292;DHT22;23311;48.776;9.162;2023-07-29T15:26:18;27.20;83.70
292;DHT22;23311;48.776;9.162;2023-07-29T15:28:46;27.60;82.90
292;DHT22;23311;48.776;9.162;2023-07-29T15:31:14;27.80;82.20
292;DHT22;23311;48.776;9.162;2023-07-29T15:33:43;28.20;81.70
292;DHT22;23311;48.776;9.162;2023-07-29T15:36:12;28.50;80.40
292;DHT22;23311;48.776;9.162;2023-07-29T15:38:40;28.60;80.50
292;DHT22;23311;48.776;9.162;2023-07-29T15:41:08;28.40;80.10
292;DHT22;23311;48.776;9.162;2023-07-29T15:43:37;28.60;80.10
292;DHT22;23311;48.776;9.162;2023-07-29T15:46:05;28.70;79.80
292;DHT22;23311;48.776;9.162;2023-07-29T15:48:33;28.90;79.60
292;DHT22;23311;48.776;9.162;2023-07-29T15:51:01;28.40;80.20
292;DHT22;23311;48.776;9.162;2023-07-29T15:53:30;29.20;79.70
292;DHT22;23311;48.776;9.162;2023-07-29T15:55:59;30.20;77.30
292;DHT22;23311;48.776;9.162;2023-07-29T15:58:27;30.30;77.60
292;DHT22;23311;48.776;9.162;2023-07-29T16:00:55;30.10;77.30
292;DHT22;23311;48.776;9.162;2023-07-29T16:03:23;29.80;78.10
292;DHT22;23311;48.776;9.162;2023-07-29T16:05:52;29.60;78.60
292;DHT22;23311;48.776;9.162;2023-07-29T16:08:20;30.30;77.50
292;DHT22;23311;48.776;9.162;2023-07-29T16:10:50;30.70;76.40
292;DHT22;23311;48.776;9.162;2023-07-29T16:13:18;31.20;75.10